Charles W Clark — WCP7548 — position and weather

sailwx.info

Track history (hours):
 
Tides and Currents Weather Stations Pressure Air Temp Water Temp Dewpoint Dewpoint Depression Visibility Wind Speed Wind Dir Waves Ship Positions

Charles W Clark

Owner: BLESSEY ENTERPRISES INC, HARAHAN, LA. More information available from US FCC via Universal Licensing System and Coast Guard Vessel Documentation Center.

Last reported at 2017-Oct-18 11:53 UTC. Time now 2017-Oct-18 20:34 UTC.
Position N 29°47' W 095°05'.

Length 20 m.

Type: Towing. MMSI: 366933680.

Date/timePositionNaut miles runAvg speedWind from/ knotsBaromVisibWave heightAir tempDewpointWater temp
2017-Oct-18 11:53N 29°47' W 095°05'0 0.2
2017-Oct-18 11:28N 29°47' W 095°05'0 0.0
2017-Oct-18 10:49N 29°47' W 095°05'0 0.1
2017-Oct-18 08:56N 29°47' W 095°04'1 2.0
2017-Oct-18 08:29N 29°46' W 095°05'1 0.3
2017-Oct-18 03:50N 29°46' W 095°06'0 0.0
2017-Oct-18 03:30N 29°46' W 095°06'0 0.0
2017-Oct-18 01:33N 29°46' W 095°06'  
2017-Oct-12 03:23N 29°46' W 095°05'3 7.1
2017-Oct-12 03:00N 29°44' W 095°03'1 0.4
2017-Oct-11 23:26N 29°43' W 095°01'1 1.2
2017-Oct-11 22:56N 29°44' W 095°01'0 0.0
2017-Oct-11 22:29N 29°44' W 095°01'0 0.0
2017-Oct-11 22:00N 29°44' W 095°01'0 0.0
2017-Oct-11 20:48N 29°44' W 095°01'0 0.0
2017-Oct-10 12:31N 29°44' W 095°02'2 8.2
2017-Oct-10 12:16N 29°45' W 095°04'  
Track history (hours):
 
Tides and Currents Weather Stations Pressure Air Temp Water Temp Dewpoint Dewpoint Depression Visibility Wind Speed Wind Dir Waves Ship Positions

Charles W Clark

Owner: BLESSEY ENTERPRISES INC, HARAHAN, LA. More information available from US FCC via Universal Licensing System and Coast Guard Vessel Documentation Center.

Last reported at 2017-Oct-18 11:53 UTC. Time now 2017-Oct-18 20:34 UTC.
Position N 29°47' W 095°05'.

Length 20 m.

Type: Towing. MMSI: 366933680.

Date/timePositionNaut miles runAvg speedWind from/ knotsBaromVisibWave heightAir tempDewpointWater temp
2017-Oct-18 11:53N 29°47' W 095°05'0 0.2
2017-Oct-18 11:28N 29°47' W 095°05'0 0.0
2017-Oct-18 10:49N 29°47' W 095°05'0 0.1
2017-Oct-18 08:56N 29°47' W 095°04'1 2.0
2017-Oct-18 08:29N 29°46' W 095°05'1 0.3
2017-Oct-18 03:50N 29°46' W 095°06'0 0.0
2017-Oct-18 03:30N 29°46' W 095°06'0 0.0
2017-Oct-18 01:33N 29°46' W 095°06'  
2017-Oct-12 03:23N 29°46' W 095°05'3 7.1
2017-Oct-12 03:00N 29°44' W 095°03'1 0.4
2017-Oct-11 23:26N 29°43' W 095°01'1 1.2
2017-Oct-11 22:56N 29°44' W 095°01'0 0.0
2017-Oct-11 22:29N 29°44' W 095°01'0 0.0
2017-Oct-11 22:00N 29°44' W 095°01'0 0.0
2017-Oct-11 20:48N 29°44' W 095°01'0 0.0
2017-Oct-10 12:31N 29°44' W 095°02'2 8.2
2017-Oct-10 12:16N 29°45' W 095°04'  

Dump ship's entire track history